createdAt,value
2022-09-11T00:02:21.682Z,18.10
2022-09-11T00:04:49.537Z,18.10
2022-09-11T00:07:17.438Z,18.10
2022-09-11T00:09:45.319Z,18.10
2022-09-11T00:12:13.466Z,18.10
2022-09-11T00:14:42.831Z,18.10
2022-09-11T00:17:10.690Z,18.10
2022-09-11T00:19:39.504Z,18.10
2022-09-11T00:22:07.330Z,18.10
2022-09-11T00:24:35.222Z,18.10
2022-09-11T00:27:03.046Z,18.10
2022-09-11T00:29:32.369Z,18.20
2022-09-11T00:32:01.558Z,18.10
2022-09-11T00:34:29.464Z,18.10
2022-09-11T00:36:58.312Z,18.20
2022-09-11T00:39:26.290Z,18.20
2022-09-11T00:41:54.115Z,18.20
2022-09-11T00:45:01.666Z,18.20
2022-09-11T00:47:32.165Z,18.30
2022-09-11T00:50:09.590Z,18.30
2022-09-11T00:52:42.622Z,18.30
2022-09-11T00:55:14.492Z,18.30
2022-09-11T00:57:45.679Z,18.30
2022-09-11T01:00:14.590Z,18.30
2022-09-11T01:02:49.250Z,18.20
2022-09-11T01:05:17.551Z,18.20
2022-09-11T01:07:46.952Z,18.30
2022-09-11T01:10:15.471Z,18.30
2022-09-11T01:12:50.633Z,18.30
2022-09-11T01:15:24.286Z,18.30
2022-09-11T01:18:03.264Z,18.30
2022-09-11T01:20:46.219Z,18.20
2022-09-11T01:23:46.987Z,18.10
2022-09-11T01:26:39.059Z,18.00
2022-09-11T01:29:16.273Z,17.90
2022-09-11T01:31:50.225Z,17.80
2022-09-11T01:34:26.587Z,17.80
2022-09-11T01:36:59.410Z,17.80
2022-09-11T01:39:32.200Z,17.80
2022-09-11T01:42:04.798Z,17.80
2022-09-11T01:44:39.559Z,17.80
2022-09-11T01:47:10.864Z,17.80
2022-09-11T01:49:42.827Z,17.90
2022-09-11T01:52:16.783Z,17.90
2022-09-11T01:54:49.710Z,17.90
2022-09-11T01:57:22.824Z,17.90
2022-09-11T01:59:57.292Z,18.00
2022-09-11T02:02:30.035Z,18.00
2022-09-11T02:05:03.900Z,18.00
2022-09-11T02:07:35.363Z,18.00
2022-09-11T02:10:08.592Z,17.90
2022-09-11T02:12:42.579Z,18.00
2022-09-11T02:15:15.829Z,17.90
2022-09-11T02:17:50.223Z,17.90
2022-09-11T02:20:20.711Z,17.90
2022-09-11T02:22:49.272Z,17.90
2022-09-11T02:25:17.389Z,17.90
2022-09-11T02:27:45.299Z,17.90
2022-09-11T02:30:15.556Z,17.80
2022-09-11T02:32:45.215Z,17.80
2022-09-11T02:35:16.090Z,17.80
2022-09-11T02:37:51.051Z,17.80
2022-09-11T02:40:38.769Z,17.70
2022-09-11T02:43:33.654Z,17.80
2022-09-11T02:46:24.926Z,17.90
2022-09-11T02:49:02.359Z,18.00
2022-09-11T02:51:35.841Z,17.90
2022-09-11T02:54:11.784Z,17.90
2022-09-11T02:56:44.883Z,17.90
2022-09-11T02:59:17.991Z,17.80
2022-09-11T03:01:53.434Z,17.80
2022-09-11T03:04:23.245Z,17.70
2022-09-11T03:06:52.250Z,17.70
2022-09-11T03:09:21.041Z,17.70
2022-09-11T03:11:49.060Z,17.70
2022-09-11T03:14:17.126Z,17.70
2022-09-11T03:16:45.172Z,17.70
2022-09-11T03:19:14.393Z,17.70
2022-09-11T03:21:42.846Z,17.70
2022-09-11T03:24:13.139Z,17.70
2022-09-11T03:26:41.113Z,17.80
2022-09-11T03:29:09.512Z,17.80
2022-09-11T03:31:39.279Z,17.90
2022-09-11T03:34:08.636Z,17.90
2022-09-11T03:36:37.859Z,17.90
2022-09-11T03:39:06.235Z,17.90
2022-09-11T03:41:34.071Z,18.00
2022-09-11T03:44:02.016Z,18.00
2022-09-11T03:46:29.995Z,18.00
2022-09-11T03:48:57.895Z,18.10
2022-09-11T03:51:26.246Z,18.10
2022-09-11T03:53:55.443Z,18.10
2022-09-11T03:56:23.285Z,18.10
2022-09-11T03:58:55.119Z,18.00
2022-09-11T04:01:22.991Z,18.10
2022-09-11T04:03:51.196Z,18.10
2022-09-11T04:06:19.417Z,18.10
2022-09-11T04:08:47.717Z,18.10
2022-09-11T04:11:16.984Z,18.10
2022-09-11T04:13:45.601Z,18.00
2022-09-11T04:16:15.841Z,18.00
2022-09-11T04:18:45.839Z,18.00
2022-09-11T04:21:15.961Z,18.00
2022-09-11T04:23:45.194Z,18.00
2022-09-11T04:26:19.842Z,18.00
2022-09-11T04:28:48.188Z,18.00
2022-09-11T04:31:17.553Z,18.10
2022-09-11T04:33:45.997Z,18.10
2022-09-11T04:36:17.682Z,18.10
2022-09-11T04:38:46.868Z,18.00
2022-09-11T04:41:15.755Z,18.00
2022-09-11T04:43:45.030Z,18.10
2022-09-11T04:46:14.415Z,18.10
2022-09-11T04:48:45.526Z,18.10
2022-09-11T04:51:21.349Z,18.10
2022-09-11T04:53:49.583Z,18.10
2022-09-11T04:56:18.111Z,18.10
2022-09-11T04:58:47.650Z,18.10
2022-09-11T05:01:17.333Z,18.00
2022-09-11T05:03:45.191Z,18.00
2022-09-11T05:06:16.336Z,18.00
2022-09-11T05:08:45.194Z,18.10
2022-09-11T05:11:14.419Z,18.10
2022-09-11T05:13:43.166Z,18.10
2022-09-11T05:16:13.911Z,18.00
2022-09-11T05:18:45.097Z,18.10
2022-09-11T05:21:15.377Z,18.10
2022-09-11T05:23:43.731Z,18.10
2022-09-11T05:26:16.492Z,18.10
2022-09-11T05:28:44.677Z,18.10
2022-09-11T05:31:16.256Z,18.10
2022-09-11T05:33:44.528Z,18.10
2022-09-11T05:36:14.066Z,18.10
2022-09-11T05:38:42.816Z,18.10
2022-09-11T05:41:12.542Z,18.10
2022-09-11T05:43:41.496Z,18.20
2022-09-11T05:46:14.155Z,18.20
2022-09-11T05:48:43.190Z,18.20
2022-09-11T05:51:12.787Z,18.20
2022-09-11T05:53:41.392Z,18.20
2022-09-11T05:56:11.099Z,18.20
2022-09-11T05:58:38.939Z,18.20
2022-09-11T06:01:08.886Z,18.20
2022-09-11T06:03:39.056Z,18.20
2022-09-11T06:06:09.067Z,18.30
2022-09-11T06:08:37.806Z,18.30
2022-09-11T06:11:07.877Z,18.30
2022-09-11T06:13:38.797Z,18.30
2022-09-11T06:16:09.807Z,18.30
2022-09-11T06:18:39.119Z,18.30
2022-09-11T06:21:09.515Z,18.30
2022-09-11T06:23:39.822Z,18.30
2022-09-11T06:26:10.009Z,18.30
2022-09-11T06:28:38.956Z,18.30
2022-09-11T06:31:08.616Z,18.30
2022-09-11T06:33:40.029Z,18.30
2022-09-11T06:36:10.468Z,18.30
2022-09-11T06:38:39.135Z,18.30
2022-09-11T06:41:12.318Z,18.40
2022-09-11T06:43:40.635Z,18.30
2022-09-11T06:46:12.410Z,18.40
2022-09-11T06:48:42.184Z,18.40
2022-09-11T06:51:12.840Z,18.40
2022-09-11T06:53:41.814Z,18.40
2022-09-11T06:56:13.222Z,18.40
2022-09-11T06:58:41.259Z,18.40
2022-09-11T07:01:12.083Z,18.40
2022-09-11T07:03:44.094Z,18.40
2022-09-11T07:06:12.331Z,18.50
2022-09-11T07:08:40.235Z,18.40
2022-09-11T07:11:09.732Z,18.40
2022-09-11T07:13:39.297Z,18.40
2022-09-11T07:16:09.750Z,18.40
2022-09-11T07:18:39.044Z,18.40
2022-09-11T07:21:09.494Z,18.40
2022-09-11T07:23:37.357Z,18.40
2022-09-11T07:26:07.248Z,18.40
2022-09-11T07:28:35.374Z,18.40
2022-09-11T07:31:10.496Z,18.40
2022-09-11T07:33:39.527Z,18.40
2022-09-11T07:36:11.953Z,18.40
2022-09-11T07:38:41.569Z,18.40
2022-09-11T07:41:10.027Z,18.40
2022-09-11T07:43:38.558Z,18.50
2022-09-11T07:46:07.669Z,18.50
2022-09-11T07:48:35.554Z,18.50
2022-09-11T07:51:05.328Z,18.50
2022-09-11T07:53:35.495Z,18.60
2022-09-11T07:56:04.524Z,18.60
2022-09-11T07:58:36.462Z,18.60
2022-09-11T08:01:05.333Z,18.60
2022-09-11T08:03:34.234Z,18.60
2022-09-11T08:06:03.440Z,18.50
2022-09-11T08:08:31.510Z,18.60
2022-09-11T08:11:04.637Z,18.50
2022-09-11T08:13:33.066Z,18.50
2022-09-11T08:16:00.952Z,18.50
2022-09-11T08:18:29.148Z,18.50
2022-09-11T08:21:03.139Z,18.40
2022-09-11T08:23:32.131Z,18.30
2022-09-11T08:26:06.579Z,18.10
2022-09-11T08:28:35.702Z,18.10
2022-09-11T08:31:03.669Z,18.00
2022-09-11T08:33:33.139Z,17.90
2022-09-11T08:36:02.107Z,17.90
2022-09-11T08:38:30.719Z,18.00
2022-09-11T08:41:00.685Z,18.10
2022-09-11T08:43:34.503Z,18.00
2022-09-11T08:46:09.285Z,18.00
2022-09-11T08:48:46.865Z,18.00
2022-09-11T08:51:17.496Z,18.00
2022-09-11T08:53:46.295Z,18.00
2022-09-11T08:56:18.926Z,18.00
2022-09-11T08:59:06.251Z,18.00
2022-09-11T09:01:47.022Z,18.00
2022-09-11T09:04:41.311Z,18.00
2022-09-11T09:07:19.917Z,17.90
2022-09-11T09:09:56.813Z,17.90
2022-09-11T09:12:34.000Z,18.00
2022-09-11T09:15:16.931Z,18.00
2022-09-11T09:17:49.330Z,18.00
2022-09-11T09:20:20.993Z,18.10
2022-09-11T09:22:55.224Z,18.10
2022-09-11T09:25:24.953Z,18.10
2022-09-11T09:27:57.891Z,18.10
2022-09-11T09:30:32.553Z,18.00
2022-09-11T09:33:11.390Z,18.00
2022-09-11T09:35:43.050Z,18.00
2022-09-11T09:38:13.904Z,17.90
2022-09-11T09:40:51.883Z,17.80
2022-09-11T09:43:28.812Z,17.80
2022-09-11T09:46:09.512Z,17.90
2022-09-11T09:48:40.672Z,18.00
2022-09-11T09:51:13.612Z,18.00
2022-09-11T09:53:45.855Z,18.00
2022-09-11T09:56:17.341Z,18.00
2022-09-11T09:58:55.481Z,18.00
2022-09-11T10:01:48.238Z,18.00
2022-09-11T10:04:19.452Z,18.20
2022-09-11T10:06:48.947Z,18.50
2022-09-11T10:09:23.041Z,18.70
2022-09-11T10:11:57.522Z,18.80
2022-09-11T10:14:49.977Z,19.00
2022-09-11T10:17:24.020Z,19.20
2022-09-11T10:19:55.516Z,19.40
2022-09-11T10:22:32.782Z,19.50
2022-09-11T10:25:03.229Z,19.50
2022-09-11T10:27:36.027Z,19.30
2022-09-11T10:30:04.651Z,19.30
2022-09-11T10:32:43.971Z,19.30
2022-09-11T10:35:12.763Z,19.30
2022-09-11T10:37:40.615Z,19.30
2022-09-11T10:40:22.289Z,19.40
2022-09-11T10:42:52.024Z,19.50
2022-09-11T10:45:21.995Z,19.70
2022-09-11T10:47:51.406Z,20.00
2022-09-11T10:50:28.647Z,20.20
2022-09-11T10:53:10.533Z,20.30
2022-09-11T10:55:42.552Z,20.40
2022-09-11T10:58:17.019Z,20.50
2022-09-11T11:00:44.947Z,20.50
2022-09-11T11:03:19.784Z,20.70
2022-09-11T11:05:56.155Z,20.80
2022-09-11T11:08:57.519Z,20.90
2022-09-11T11:11:42.639Z,21.00
2022-09-11T11:14:39.287Z,21.10
2022-09-11T11:17:19.652Z,21.20
2022-09-11T11:20:12.409Z,21.50
2022-09-11T11:23:04.770Z,21.80
2022-09-11T11:25:43.248Z,22.10
2022-09-11T11:28:31.053Z,22.70
2022-09-11T11:31:15.890Z,23.80
2022-09-11T11:34:15.210Z,25.60
2022-09-11T11:36:49.401Z,27.30
2022-09-11T11:39:25.356Z,28.80
2022-09-11T11:42:07.511Z,29.90
2022-09-11T11:44:40.933Z,30.10
2022-09-11T11:47:10.761Z,30.80
2022-09-11T11:49:50.228Z,31.00
2022-09-11T11:52:38.091Z,30.30
2022-09-11T11:55:16.816Z,29.30
2022-09-11T11:57:50.314Z,28.50
2022-09-11T12:00:19.792Z,28.10
2022-09-11T12:02:54.412Z,28.70
2022-09-11T12:05:25.541Z,30.20
2022-09-11T12:07:55.037Z,31.70
2022-09-11T12:10:30.955Z,33.20
2022-09-11T12:13:02.611Z,34.50
2022-09-11T12:15:34.201Z,35.60
2022-09-11T12:18:22.667Z,36.30
2022-09-11T12:20:50.760Z,37.00
2022-09-11T12:23:56.053Z,37.40
2022-09-11T12:26:26.398Z,37.90
2022-09-11T12:29:37.303Z,38.00
2022-09-11T12:32:28.931Z,38.50
2022-09-11T12:35:19.314Z,38.70
2022-09-11T12:37:54.234Z,38.40
2022-09-11T12:40:32.180Z,38.30
2022-09-11T12:43:31.198Z,38.30
2022-09-11T12:45:59.073Z,39.10
2022-09-11T12:48:37.145Z,39.00
2022-09-11T12:51:07.282Z,38.60
2022-09-11T12:53:38.169Z,38.90
2022-09-11T12:56:08.462Z,39.50
2022-09-11T12:58:40.691Z,39.80
2022-09-11T13:01:24.139Z,40.30
2022-09-11T13:03:58.655Z,40.80
2022-09-11T13:06:39.590Z,40.20
2022-09-11T13:09:18.518Z,39.70
2022-09-11T13:11:49.071Z,39.30
2022-09-11T13:14:50.480Z,39.70
2022-09-11T13:17:26.169Z,39.60
2022-09-11T13:19:58.365Z,40.40
2022-09-11T13:22:31.464Z,40.80
2022-09-11T13:25:08.108Z,41.80
2022-09-11T13:27:39.028Z,42.40
2022-09-11T13:30:09.876Z,42.80
2022-09-11T13:32:40.385Z,43.30
2022-09-11T13:35:14.165Z,43.40
2022-09-11T13:37:45.492Z,43.20
2022-09-11T13:40:27.012Z,43.00
2022-09-11T13:42:55.098Z,42.90
2022-09-11T13:45:26.208Z,43.30
2022-09-11T13:47:54.467Z,43.50
2022-09-11T13:50:23.761Z,43.50
2022-09-11T13:52:53.243Z,43.50
2022-09-11T13:55:28.120Z,43.60
2022-09-11T13:57:58.485Z,43.60
2022-09-11T14:00:45.817Z,43.50
2022-09-11T14:03:27.869Z,43.40
2022-09-11T14:05:57.835Z,43.40
2022-09-11T14:08:35.024Z,43.70
2022-09-11T14:11:11.657Z,43.80
2022-09-11T14:13:45.654Z,43.90
2022-09-11T14:16:23.977Z,43.80
2022-09-11T14:18:55.503Z,43.50
2022-09-11T14:21:28.028Z,43.40
2022-09-11T14:23:58.040Z,43.30
2022-09-11T14:26:40.267Z,43.00
2022-09-11T14:29:23.927Z,42.80
2022-09-11T14:31:53.969Z,42.00
2022-09-11T14:34:24.342Z,41.60
2022-09-11T14:36:56.118Z,41.20
2022-09-11T14:39:31.693Z,41.10
2022-09-11T14:41:59.902Z,41.10
2022-09-11T14:44:28.877Z,40.60
2022-09-11T14:46:59.122Z,39.20
2022-09-11T14:49:26.946Z,38.30
2022-09-11T14:51:58.063Z,37.40
2022-09-11T14:54:27.443Z,36.20
2022-09-11T14:56:55.292Z,35.10
2022-09-11T14:59:23.131Z,34.10
2022-09-11T15:01:52.169Z,33.10
2022-09-11T15:04:22.957Z,32.40
2022-09-11T15:06:53.278Z,31.70
2022-09-11T15:09:21.171Z,31.10
2022-09-11T15:11:50.352Z,30.70
2022-09-11T15:14:32.564Z,30.30
2022-09-11T15:17:07.923Z,29.80
2022-09-11T15:19:38.022Z,29.50
2022-09-11T15:22:06.577Z,29.10
2022-09-11T15:24:35.335Z,28.70
2022-09-11T15:27:03.782Z,28.40
2022-09-11T15:29:32.030Z,28.20
2022-09-11T15:32:01.910Z,28.00
2022-09-11T15:34:33.370Z,27.80
2022-09-11T15:37:02.877Z,27.80
2022-09-11T15:39:30.794Z,27.70
2022-09-11T15:41:59.152Z,27.50
2022-09-11T15:44:28.782Z,27.40
2022-09-11T15:46:59.058Z,27.30
2022-09-11T15:49:29.139Z,27.10
2022-09-11T15:51:57.858Z,26.90
2022-09-11T15:54:27.928Z,26.70
2022-09-11T15:56:55.810Z,26.60
2022-09-11T15:59:24.061Z,26.60
2022-09-11T16:01:52.153Z,26.40
2022-09-11T16:04:23.138Z,26.40
2022-09-11T16:06:53.568Z,26.30
2022-09-11T16:09:29.670Z,26.30
2022-09-11T16:12:01.779Z,26.20
2022-09-11T16:14:32.551Z,26.20
2022-09-11T16:17:01.135Z,26.00
2022-09-11T16:19:30.014Z,26.00
2022-09-11T16:21:59.415Z,25.90
2022-09-11T16:24:31.423Z,25.80
2022-09-11T16:27:01.422Z,25.80
2022-09-11T16:29:49.354Z,25.70
2022-09-11T16:32:28.248Z,25.60
2022-09-11T16:34:57.288Z,25.50
2022-09-11T16:37:25.791Z,25.40
2022-09-11T16:39:55.042Z,25.40
2022-09-11T16:42:22.956Z,25.40
2022-09-11T16:44:51.257Z,25.30
2022-09-11T16:47:20.030Z,25.20
2022-09-11T16:50:06.467Z,25.20
2022-09-11T16:52:35.574Z,25.10
2022-09-11T16:55:07.425Z,25.10
2022-09-11T16:57:35.605Z,25.00
2022-09-11T17:00:07.610Z,24.80
2022-09-11T17:02:38.506Z,24.70
2022-09-11T17:05:08.007Z,24.70
2022-09-11T17:07:37.033Z,24.60
2022-09-11T17:10:07.009Z,24.50
2022-09-11T17:12:34.859Z,24.40
2022-09-11T17:15:02.682Z,24.30
2022-09-11T17:17:31.209Z,24.20
2022-09-11T17:19:59.170Z,24.20
2022-09-11T17:22:27.183Z,24.10
2022-09-11T17:24:55.021Z,24.00
2022-09-11T17:27:24.339Z,24.00
2022-09-11T17:29:52.317Z,23.90
2022-09-11T17:32:29.159Z,23.70
2022-09-11T17:34:58.290Z,23.60
2022-09-11T17:37:26.851Z,23.60
2022-09-11T17:39:55.321Z,23.50
2022-09-11T17:42:24.797Z,23.40
2022-09-11T17:44:52.630Z,23.30
2022-09-11T17:47:20.482Z,23.30
2022-09-11T17:49:49.872Z,23.20
2022-09-11T17:52:18.962Z,23.20
2022-09-11T17:54:46.971Z,23.10
2022-09-11T17:57:15.911Z,23.00
2022-09-11T17:59:45.954Z,22.90
2022-09-11T18:02:14.790Z,22.90
2022-09-11T18:04:43.767Z,22.80
2022-09-11T18:07:12.087Z,22.70
2022-09-11T18:09:39.938Z,22.60
2022-09-11T18:12:08.129Z,22.60
2022-09-11T18:14:37.958Z,22.50
2022-09-11T18:17:07.574Z,22.40
2022-09-11T18:19:36.195Z,22.30
2022-09-11T18:22:04.014Z,22.20
2022-09-11T18:24:32.517Z,22.10
2022-09-11T18:27:01.140Z,22.10
2022-09-11T18:29:30.381Z,22.00
2022-09-11T18:31:59.946Z,22.00
2022-09-11T18:34:31.208Z,21.90
2022-09-11T18:36:59.936Z,21.90
2022-09-11T18:39:28.164Z,21.80
2022-09-11T18:41:56.198Z,21.80
2022-09-11T18:44:25.146Z,21.70
2022-09-11T18:46:54.442Z,21.70
2022-09-11T18:49:23.185Z,21.70
2022-09-11T18:51:53.635Z,21.60
2022-09-11T18:54:22.206Z,21.60
2022-09-11T18:56:50.995Z,21.60
2022-09-11T18:59:20.374Z,21.60
2022-09-11T19:01:48.616Z,21.60
2022-09-11T19:04:16.807Z,21.60
2022-09-11T19:06:46.193Z,21.60
2022-09-11T19:09:15.500Z,21.50
2022-09-11T19:11:43.686Z,21.50
2022-09-11T19:14:13.003Z,21.50
2022-09-11T19:16:41.518Z,21.40
2022-09-11T19:19:09.930Z,21.30
2022-09-11T19:21:38.762Z,21.30
2022-09-11T19:24:07.658Z,21.30
2022-09-11T19:26:39.594Z,21.30
2022-09-11T19:29:09.043Z,21.20
2022-09-11T19:31:39.053Z,21.10
2022-09-11T19:34:08.348Z,21.10
2022-09-11T19:36:37.071Z,21.10
2022-09-11T19:39:05.918Z,21.00
2022-09-11T19:41:37.224Z,21.00
2022-09-11T19:44:07.132Z,21.00
2022-09-11T19:46:37.189Z,20.90
2022-09-11T19:49:07.054Z,20.90
2022-09-11T19:51:37.407Z,20.90
2022-09-11T19:54:06.402Z,20.90
2022-09-11T19:56:37.321Z,20.80
2022-09-11T19:59:05.782Z,20.80
2022-09-11T20:01:33.694Z,20.70
2022-09-11T20:04:01.653Z,20.70
2022-09-11T20:06:31.878Z,20.70
2022-09-11T20:09:29.992Z,20.70
2022-09-11T20:11:50.071Z,20.60
2022-09-11T20:14:18.330Z,20.50
2022-09-11T20:16:46.206Z,20.50
2022-09-11T20:19:14.918Z,20.40
2022-09-11T20:21:42.982Z,20.40
2022-09-11T20:24:10.822Z,20.30
2022-09-11T20:26:38.639Z,20.30
2022-09-11T20:29:12.021Z,20.30
2022-09-11T20:31:47.660Z,20.30
2022-09-11T20:34:17.229Z,20.20
2022-09-11T20:36:45.505Z,20.20
2022-09-11T20:39:14.300Z,20.20
2022-09-11T20:41:42.653Z,20.10
2022-09-11T20:44:12.127Z,20.10
2022-09-11T20:46:40.381Z,20.10
2022-09-11T20:49:08.300Z,20.10
2022-09-11T20:51:36.165Z,20.10
2022-09-11T20:54:04.021Z,20.10
2022-09-11T20:56:31.979Z,20.00
2022-09-11T20:59:00.642Z,20.00
2022-09-11T21:01:33.023Z,19.90
2022-09-11T21:04:02.354Z,19.90
2022-09-11T21:06:32.998Z,19.90
2022-09-11T21:09:02.784Z,19.90
2022-09-11T21:11:31.564Z,19.80
2022-09-11T21:14:00.403Z,19.80
2022-09-11T21:16:29.830Z,19.80
2022-09-11T21:18:59.923Z,19.80
2022-09-11T21:21:29.067Z,19.80
2022-09-11T21:23:58.186Z,19.80
2022-09-11T21:26:28.619Z,19.80
2022-09-11T21:28:57.949Z,19.80
2022-09-11T21:31:26.346Z,19.70
2022-09-11T21:33:55.685Z,19.70
2022-09-11T21:36:23.906Z,19.70
2022-09-11T21:38:51.763Z,19.70
2022-09-11T21:41:19.937Z,19.70
2022-09-11T21:43:48.253Z,19.60
2022-09-11T21:46:16.161Z,19.60
2022-09-11T21:48:44.057Z,19.60
2022-09-11T21:51:15.064Z,19.60
2022-09-11T21:53:45.123Z,19.50
2022-09-11T21:56:20.654Z,19.50
2022-09-11T21:58:50.365Z,19.40
2022-09-11T22:01:18.432Z,19.40
2022-09-11T22:03:46.463Z,19.40
2022-09-11T22:06:16.517Z,19.40
2022-09-11T22:08:46.961Z,19.40
2022-09-11T22:11:15.871Z,19.30
2022-09-11T22:13:44.285Z,19.30
2022-09-11T22:16:14.280Z,19.20
2022-09-11T22:18:42.727Z,19.20
2022-09-11T22:21:11.444Z,19.10
2022-09-11T22:23:40.730Z,19.10
2022-09-11T22:26:10.520Z,19.10
2022-09-11T22:28:39.286Z,19.10
2022-09-11T22:31:11.499Z,19.10
2022-09-11T22:33:41.015Z,19.00
2022-09-11T22:36:11.053Z,19.00
2022-09-11T22:38:40.357Z,19.00
2022-09-11T22:41:08.649Z,18.90
2022-09-11T22:43:36.710Z,18.90
2022-09-11T22:46:05.286Z,18.90
2022-09-11T22:48:33.651Z,18.90
2022-09-11T22:51:01.583Z,18.80
2022-09-11T22:53:30.675Z,18.80
2022-09-11T22:56:00.039Z,18.80
2022-09-11T22:58:29.494Z,18.70
2022-09-11T23:00:58.075Z,18.70
2022-09-11T23:03:25.943Z,18.70
2022-09-11T23:06:13.976Z,18.70
2022-09-11T23:08:41.869Z,18.70
2022-09-11T23:11:11.398Z,18.60
2022-09-11T23:13:39.282Z,18.60
2022-09-11T23:16:13.124Z,18.60
2022-09-11T23:18:41.090Z,18.70
2022-09-11T23:21:09.085Z,18.60
2022-09-11T23:23:40.900Z,18.60
2022-09-11T23:26:10.969Z,18.60
2022-09-11T23:28:39.527Z,18.60
2022-09-11T23:31:11.881Z,18.60
2022-09-11T23:33:39.835Z,18.60
2022-09-11T23:36:09.280Z,18.60
2022-09-11T23:38:37.248Z,18.50
2022-09-11T23:41:05.114Z,18.60
2022-09-11T23:43:34.468Z,18.50
2022-09-11T23:46:02.564Z,18.50
2022-09-11T23:48:30.471Z,18.50
2022-09-11T23:50:58.315Z,18.50
2022-09-11T23:53:26.222Z,18.40
2022-09-11T23:55:54.041Z,18.40
2022-09-11T23:58:21.968Z,18.30
